sensor_id;sensor_type;location;lat;lon;timestamp;temperature;humidity
59975;DHT22;62136;-35.664;-63.766;2023-04-19T00:01:45;21.20;46.00
59975;DHT22;62136;-35.664;-63.766;2023-04-19T00:04:16;21.20;46.20
59975;DHT22;62136;-35.664;-63.766;2023-04-19T00:06:44;21.10;45.90
59975;DHT22;62136;-35.664;-63.766;2023-04-19T00:09:12;21.10;45.90
59975;DHT22;62136;-35.664;-63.766;2023-04-19T00:11:40;21.10;45.90
59975;DHT22;62136;-35.664;-63.766;2023-04-19T00:14:07;21.10;46.00
59975;DHT22;62136;-35.664;-63.766;2023-04-19T00:16:34;21.10;45.40
59975;DHT22;62136;-35.664;-63.766;2023-04-19T00:19:02;21.00;44.30
59975;DHT22;62136;-35.664;-63.766;2023-04-19T00:21:29;20.80;44.50
59975;DHT22;62136;-35.664;-63.766;2023-04-19T00:23:56;20.70;44.60
59975;DHT22;62136;-35.664;-63.766;2023-04-19T00:26:23;20.80;44.30
59975;DHT22;62136;-35.664;-63.766;2023-04-19T00:28:51;20.80;44.50
59975;DHT22;62136;-35.664;-63.766;2023-04-19T00:31:18;20.90;43.90
59975;DHT22;62136;-35.664;-63.766;2023-04-19T00:33:45;20.90;44.30
59975;DHT22;62136;-35.664;-63.766;2023-04-19T00:36:12;20.80;44.30
59975;DHT22;62136;-35.664;-63.766;2023-04-19T00:38:39;20.90;44.20
59975;DHT22;62136;-35.664;-63.766;2023-04-19T00:41:06;20.90;43.90
59975;DHT22;62136;-35.664;-63.766;2023-04-19T00:43:34;20.90;43.90
59975;DHT22;62136;-35.664;-63.766;2023-04-19T00:46:01;20.90;43.40
59975;DHT22;62136;-35.664;-63.766;2023-04-19T00:48:28;20.90;43.10
59975;DHT22;62136;-35.664;-63.766;2023-04-19T00:50:56;20.90;43.20
59975;DHT22;62136;-35.664;-63.766;2023-04-19T00:53:23;20.80;42.90
59975;DHT22;62136;-35.664;-63.766;2023-04-19T00:55:50;20.80;43.00
59975;DHT22;62136;-35.664;-63.766;2023-04-19T00:58:18;20.80;42.90
59975;DHT22;62136;-35.664;-63.766;2023-04-19T01:00:45;20.80;42.60
59975;DHT22;62136;-35.664;-63.766;2023-04-19T01:03:12;20.80;41.50
59975;DHT22;62136;-35.664;-63.766;2023-04-19T01:05:42;20.70;42.50
59975;DHT22;62136;-35.664;-63.766;2023-04-19T01:08:09;20.70;42.40
59975;DHT22;62136;-35.664;-63.766;2023-04-19T01:10:36;20.70;42.10
59975;DHT22;62136;-35.664;-63.766;2023-04-19T01:13:03;20.60;42.40
59975;DHT22;62136;-35.664;-63.766;2023-04-19T01:15:30;20.60;40.60
59975;DHT22;62136;-35.664;-63.766;2023-04-19T01:17:57;20.60;42.30
59975;DHT22;62136;-35.664;-63.766;2023-04-19T01:20:24;20.60;42.20
59975;DHT22;62136;-35.664;-63.766;2023-04-19T01:22:51;20.60;42.20
59975;DHT22;62136;-35.664;-63.766;2023-04-19T01:25:18;20.60;41.90
59975;DHT22;62136;-35.664;-63.766;2023-04-19T01:27:45;20.60;42.00
59975;DHT22;62136;-35.664;-63.766;2023-04-19T01:30:12;20.60;42.00
59975;DHT22;62136;-35.664;-63.766;2023-04-19T01:32:39;20.60;42.10
59975;DHT22;62136;-35.664;-63.766;2023-04-19T01:35:07;20.60;42.20
59975;DHT22;62136;-35.664;-63.766;2023-04-19T01:37:36;20.60;42.20
59975;DHT22;62136;-35.664;-63.766;2023-04-19T01:40:05;20.60;42.40
59975;DHT22;62136;-35.664;-63.766;2023-04-19T01:42:32;20.60;42.40
59975;DHT22;62136;-35.664;-63.766;2023-04-19T01:44:59;20.60;42.60
59975;DHT22;62136;-35.664;-63.766;2023-04-19T01:47:26;20.60;42.60
59975;DHT22;62136;-35.664;-63.766;2023-04-19T01:49:53;20.60;42.70
59975;DHT22;62136;-35.664;-63.766;2023-04-19T01:52:20;20.60;42.70
59975;DHT22;62136;-35.664;-63.766;2023-04-19T01:54:48;20.60;42.80
59975;DHT22;62136;-35.664;-63.766;2023-04-19T01:57:15;20.60;42.90
59975;DHT22;62136;-35.664;-63.766;2023-04-19T01:59:42;20.60;42.90
59975;DHT22;62136;-35.664;-63.766;2023-04-19T02:02:09;20.60;43.10
59975;DHT22;62136;-35.664;-63.766;2023-04-19T02:04:36;20.60;43.20
59975;DHT22;62136;-35.664;-63.766;2023-04-19T02:07:03;20.60;43.20
59975;DHT22;62136;-35.664;-63.766;2023-04-19T02:09:30;20.60;43.40
59975;DHT22;62136;-35.664;-63.766;2023-04-19T02:11:57;20.60;43.30
59975;DHT22;62136;-35.664;-63.766;2023-04-19T02:14:24;20.60;43.40
59975;DHT22;62136;-35.664;-63.766;2023-04-19T02:16:51;20.60;43.50
59975;DHT22;62136;-35.664;-63.766;2023-04-19T02:19:18;20.50;43.40
59975;DHT22;62136;-35.664;-63.766;2023-04-19T02:21:45;20.60;44.00
59975;DHT22;62136;-35.664;-63.766;2023-04-19T02:24:12;20.60;43.70
59975;DHT22;62136;-35.664;-63.766;2023-04-19T02:26:39;20.50;43.70
59975;DHT22;62136;-35.664;-63.766;2023-04-19T02:29:06;20.50;43.70
59975;DHT22;62136;-35.664;-63.766;2023-04-19T02:31:33;20.60;43.90
59975;DHT22;62136;-35.664;-63.766;2023-04-19T02:34:01;20.50;44.40
59975;DHT22;62136;-35.664;-63.766;2023-04-19T02:36:28;20.50;44.20
59975;DHT22;62136;-35.664;-63.766;2023-04-19T02:38:58;20.50;44.10
59975;DHT22;62136;-35.664;-63.766;2023-04-19T02:41:25;20.50;44.10
59975;DHT22;62136;-35.664;-63.766;2023-04-19T02:43:52;20.50;44.20
59975;DHT22;62136;-35.664;-63.766;2023-04-19T02:46:19;20.50;44.20
59975;DHT22;62136;-35.664;-63.766;2023-04-19T02:48:46;20.50;44.20
59975;DHT22;62136;-35.664;-63.766;2023-04-19T02:51:16;20.50;44.40
59975;DHT22;62136;-35.664;-63.766;2023-04-19T02:53:43;20.50;44.40
59975;DHT22;62136;-35.664;-63.766;2023-04-19T02:56:10;20.50;45.10
59975;DHT22;62136;-35.664;-63.766;2023-04-19T02:58:37;20.50;44.50
59975;DHT22;62136;-35.664;-63.766;2023-04-19T03:01:04;20.50;44.70
59975;DHT22;62136;-35.664;-63.766;2023-04-19T03:03:32;20.50;44.80
59975;DHT22;62136;-35.664;-63.766;2023-04-19T03:05:59;20.40;45.20
59975;DHT22;62136;-35.664;-63.766;2023-04-19T03:08:26;20.40;44.80
59975;DHT22;62136;-35.664;-63.766;2023-04-19T03:10:53;20.40;44.70
59975;DHT22;62136;-35.664;-63.766;2023-04-19T03:13:23;20.40;45.20
59975;DHT22;62136;-35.664;-63.766;2023-04-19T03:15:52;20.40;44.90
59975;DHT22;62136;-35.664;-63.766;2023-04-19T03:18:19;20.40;44.80
59975;DHT22;62136;-35.664;-63.766;2023-04-19T03:20:46;20.40;45.00
59975;DHT22;62136;-35.664;-63.766;2023-04-19T03:23:13;20.40;44.90
59975;DHT22;62136;-35.664;-63.766;2023-04-19T03:25:40;20.40;45.00
59975;DHT22;62136;-35.664;-63.766;2023-04-19T03:28:14;20.40;45.10
59975;DHT22;62136;-35.664;-63.766;2023-04-19T03:30:44;20.40;45.20
59975;DHT22;62136;-35.664;-63.766;2023-04-19T03:33:11;20.30;45.20
59975;DHT22;62136;-35.664;-63.766;2023-04-19T03:35:38;20.40;45.20
59975;DHT22;62136;-35.664;-63.766;2023-04-19T03:38:05;20.30;45.20
59975;DHT22;62136;-35.664;-63.766;2023-04-19T03:40:37;20.30;45.20
59975;DHT22;62136;-35.664;-63.766;2023-04-19T03:43:04;20.30;45.40
59975;DHT22;62136;-35.664;-63.766;2023-04-19T03:45:31;20.30;45.30
59975;DHT22;62136;-35.664;-63.766;2023-04-19T03:47:58;20.30;45.40
59975;DHT22;62136;-35.664;-63.766;2023-04-19T03:50:25;20.30;45.40
59975;DHT22;62136;-35.664;-63.766;2023-04-19T03:52:52;20.30;45.40
59975;DHT22;62136;-35.664;-63.766;2023-04-19T03:55:20;20.30;45.40
59975;DHT22;62136;-35.664;-63.766;2023-04-19T03:57:47;20.30;45.40
59975;DHT22;62136;-35.664;-63.766;2023-04-19T04:00:14;20.30;45.60
59975;DHT22;62136;-35.664;-63.766;2023-04-19T04:02:41;20.30;45.50
59975;DHT22;62136;-35.664;-63.766;2023-04-19T04:05:09;20.30;45.50
59975;DHT22;62136;-35.664;-63.766;2023-04-19T04:07:36;20.20;45.50
59975;DHT22;62136;-35.664;-63.766;2023-04-19T04:10:03;20.20;45.50
59975;DHT22;62136;-35.664;-63.766;2023-04-19T04:12:30;20.20;45.60
59975;DHT22;62136;-35.664;-63.766;2023-04-19T04:14:57;20.20;45.70
59975;DHT22;62136;-35.664;-63.766;2023-04-19T04:17:24;20.20;45.60
59975;DHT22;62136;-35.664;-63.766;2023-04-19T04:19:51;20.20;45.60
59975;DHT22;62136;-35.664;-63.766;2023-04-19T04:22:19;20.20;45.60
59975;DHT22;62136;-35.664;-63.766;2023-04-19T04:24:46;20.20;45.80
59975;DHT22;62136;-35.664;-63.766;2023-04-19T04:27:14;20.20;45.60
59975;DHT22;62136;-35.664;-63.766;2023-04-19T04:29:45;20.20;45.70
59975;DHT22;62136;-35.664;-63.766;2023-04-19T04:32:12;20.20;45.80
59975;DHT22;62136;-35.664;-63.766;2023-04-19T04:34:43;20.20;45.70
59975;DHT22;62136;-35.664;-63.766;2023-04-19T04:37:13;20.20;45.70
59975;DHT22;62136;-35.664;-63.766;2023-04-19T04:39:41;20.10;45.70
59975;DHT22;62136;-35.664;-63.766;2023-04-19T04:42:09;20.20;45.80
59975;DHT22;62136;-35.664;-63.766;2023-04-19T04:44:37;20.20;45.80
59975;DHT22;62136;-35.664;-63.766;2023-04-19T04:47:07;20.10;45.80
59975;DHT22;62136;-35.664;-63.766;2023-04-19T04:49:37;20.10;45.90
59975;DHT22;62136;-35.664;-63.766;2023-04-19T04:52:04;20.10;45.80
59975;DHT22;62136;-35.664;-63.766;2023-04-19T04:54:34;20.10;45.80
59975;DHT22;62136;-35.664;-63.766;2023-04-19T04:57:04;20.10;45.80
59975;DHT22;62136;-35.664;-63.766;2023-04-19T04:59:34;20.10;45.90
59975;DHT22;62136;-35.664;-63.766;2023-04-19T05:04:27;20.10;45.90
59975;DHT22;62136;-35.664;-63.766;2023-04-19T05:06:57;20.10;45.90
59975;DHT22;62136;-35.664;-63.766;2023-04-19T05:09:24;20.10;45.90
59975;DHT22;62136;-35.664;-63.766;2023-04-19T05:11:51;20.10;46.00
59975;DHT22;62136;-35.664;-63.766;2023-04-19T05:14:18;20.10;46.00
59975;DHT22;62136;-35.664;-63.766;2023-04-19T05:16:45;20.00;45.90
59975;DHT22;62136;-35.664;-63.766;2023-04-19T05:19:12;20.00;45.90
59975;DHT22;62136;-35.664;-63.766;2023-04-19T05:21:39;20.00;45.90
59975;DHT22;62136;-35.664;-63.766;2023-04-19T05:24:06;20.10;46.00
59975;DHT22;62136;-35.664;-63.766;2023-04-19T05:26:35;20.00;45.90
59975;DHT22;62136;-35.664;-63.766;2023-04-19T05:29:02;20.00;46.00
59975;DHT22;62136;-35.664;-63.766;2023-04-19T05:31:29;20.00;46.00
59975;DHT22;62136;-35.664;-63.766;2023-04-19T05:33:56;20.00;46.00
59975;DHT22;62136;-35.664;-63.766;2023-04-19T05:36:23;20.00;45.90
59975;DHT22;62136;-35.664;-63.766;2023-04-19T05:38:50;20.00;46.00
59975;DHT22;62136;-35.664;-63.766;2023-04-19T05:41:17;20.00;46.00
59975;DHT22;62136;-35.664;-63.766;2023-04-19T05:43:44;20.00;46.00
59975;DHT22;62136;-35.664;-63.766;2023-04-19T05:46:11;20.00;46.00
59975;DHT22;62136;-35.664;-63.766;2023-04-19T05:48:38;20.00;46.00
59975;DHT22;62136;-35.664;-63.766;2023-04-19T05:51:05;20.00;46.00
59975;DHT22;62136;-35.664;-63.766;2023-04-19T05:53:32;19.90;45.90
59975;DHT22;62136;-35.664;-63.766;2023-04-19T05:55:59;19.90;45.90
59975;DHT22;62136;-35.664;-63.766;2023-04-19T05:58:26;19.90;45.90
59975;DHT22;62136;-35.664;-63.766;2023-04-19T06:00:53;20.00;46.00
59975;DHT22;62136;-35.664;-63.766;2023-04-19T06:03:20;19.90;45.90
59975;DHT22;62136;-35.664;-63.766;2023-04-19T06:05:48;19.90;45.80
59975;DHT22;62136;-35.664;-63.766;2023-04-19T06:08:15;19.90;45.90
59975;DHT22;62136;-35.664;-63.766;2023-04-19T06:10:43;19.90;45.90
59975;DHT22;62136;-35.664;-63.766;2023-04-19T06:13:12;19.90;45.80
59975;DHT22;62136;-35.664;-63.766;2023-04-19T06:15:39;19.90;45.70
59975;DHT22;62136;-35.664;-63.766;2023-04-19T06:18:06;19.90;45.80
59975;DHT22;62136;-35.664;-63.766;2023-04-19T06:20:37;19.90;45.80
59975;DHT22;62136;-35.664;-63.766;2023-04-19T06:23:05;19.90;45.80
59975;DHT22;62136;-35.664;-63.766;2023-04-19T06:25:33;19.90;45.70
59975;DHT22;62136;-35.664;-63.766;2023-04-19T06:28:00;19.90;45.80
59975;DHT22;62136;-35.664;-63.766;2023-04-19T06:30:27;19.90;45.70
59975;DHT22;62136;-35.664;-63.766;2023-04-19T06:32:54;19.90;45.70
59975;DHT22;62136;-35.664;-63.766;2023-04-19T06:35:21;19.90;45.70
59975;DHT22;62136;-35.664;-63.766;2023-04-19T06:37:50;19.90;45.60
59975;DHT22;62136;-35.664;-63.766;2023-04-19T06:40:17;19.90;45.60
59975;DHT22;62136;-35.664;-63.766;2023-04-19T06:42:44;19.80;45.50
59975;DHT22;62136;-35.664;-63.766;2023-04-19T06:45:11;19.90;45.60
59975;DHT22;62136;-35.664;-63.766;2023-04-19T06:47:40;19.80;45.50
59975;DHT22;62136;-35.664;-63.766;2023-04-19T06:50:07;19.80;45.50
59975;DHT22;62136;-35.664;-63.766;2023-04-19T06:52:36;19.80;45.50
59975;DHT22;62136;-35.664;-63.766;2023-04-19T06:55:03;19.80;45.60
59975;DHT22;62136;-35.664;-63.766;2023-04-19T06:57:31;19.80;45.50
59975;DHT22;62136;-35.664;-63.766;2023-04-19T06:59:58;19.80;45.40
59975;DHT22;62136;-35.664;-63.766;2023-04-19T07:02:25;19.80;45.50
59975;DHT22;62136;-35.664;-63.766;2023-04-19T07:04:52;19.80;45.50
59975;DHT22;62136;-35.664;-63.766;2023-04-19T07:07:19;19.80;45.50
59975;DHT22;62136;-35.664;-63.766;2023-04-19T07:09:46;19.80;45.40
59975;DHT22;62136;-35.664;-63.766;2023-04-19T07:12:13;19.80;45.40
59975;DHT22;62136;-35.664;-63.766;2023-04-19T07:14:40;19.80;45.40
59975;DHT22;62136;-35.664;-63.766;2023-04-19T07:17:07;19.80;45.50
59975;DHT22;62136;-35.664;-63.766;2023-04-19T07:19:34;19.80;45.40
59975;DHT22;62136;-35.664;-63.766;2023-04-19T07:22:02;19.80;45.40
59975;DHT22;62136;-35.664;-63.766;2023-04-19T07:24:29;19.80;45.40
59975;DHT22;62136;-35.664;-63.766;2023-04-19T07:26:56;19.70;45.40
59975;DHT22;62136;-35.664;-63.766;2023-04-19T07:29:23;19.70;45.40
59975;DHT22;62136;-35.664;-63.766;2023-04-19T07:31:50;19.70;45.50
59975;DHT22;62136;-35.664;-63.766;2023-04-19T07:34:20;19.70;45.40
59975;DHT22;62136;-35.664;-63.766;2023-04-19T07:36:47;19.70;45.40
59975;DHT22;62136;-35.664;-63.766;2023-04-19T07:39:14;19.70;45.30
59975;DHT22;62136;-35.664;-63.766;2023-04-19T07:41:42;19.70;45.40
59975;DHT22;62136;-35.664;-63.766;2023-04-19T07:44:09;19.70;45.30
59975;DHT22;62136;-35.664;-63.766;2023-04-19T07:46:37;19.70;45.30
59975;DHT22;62136;-35.664;-63.766;2023-04-19T07:49:04;19.70;45.40
59975;DHT22;62136;-35.664;-63.766;2023-04-19T07:51:31;19.70;45.40
59975;DHT22;62136;-35.664;-63.766;2023-04-19T07:53:58;19.70;45.30
59975;DHT22;62136;-35.664;-63.766;2023-04-19T07:56:25;19.70;45.30
59975;DHT22;62136;-35.664;-63.766;2023-04-19T07:58:52;19.60;45.30
59975;DHT22;62136;-35.664;-63.766;2023-04-19T08:01:19;19.60;45.20
59975;DHT22;62136;-35.664;-63.766;2023-04-19T08:03:47;19.60;45.20
59975;DHT22;62136;-35.664;-63.766;2023-04-19T08:06:14;19.60;45.30
59975;DHT22;62136;-35.664;-63.766;2023-04-19T08:08:41;19.60;45.20
59975;DHT22;62136;-35.664;-63.766;2023-04-19T08:11:08;19.60;45.20
59975;DHT22;62136;-35.664;-63.766;2023-04-19T08:13:35;19.60;45.30
59975;DHT22;62136;-35.664;-63.766;2023-04-19T08:16:01;19.60;45.10
59975;DHT22;62136;-35.664;-63.766;2023-04-19T08:18:29;19.60;45.30
59975;DHT22;62136;-35.664;-63.766;2023-04-19T08:20:56;19.60;45.20
59975;DHT22;62136;-35.664;-63.766;2023-04-19T08:23:24;19.60;45.20
59975;DHT22;62136;-35.664;-63.766;2023-04-19T08:25:51;19.60;45.20
59975;DHT22;62136;-35.664;-63.766;2023-04-19T08:28:18;19.60;45.10
59975;DHT22;62136;-35.664;-63.766;2023-04-19T08:30:45;19.50;45.10
59975;DHT22;62136;-35.664;-63.766;2023-04-19T08:33:12;19.60;45.10
59975;DHT22;62136;-35.664;-63.766;2023-04-19T08:35:39;19.60;45.20
59975;DHT22;62136;-35.664;-63.766;2023-04-19T08:38:07;19.60;45.20
59975;DHT22;62136;-35.664;-63.766;2023-04-19T08:40:35;19.60;45.20
59975;DHT22;62136;-35.664;-63.766;2023-04-19T08:43:07;19.60;45.30
59975;DHT22;62136;-35.664;-63.766;2023-04-19T08:45:35;19.60;45.10
59975;DHT22;62136;-35.664;-63.766;2023-04-19T08:48:03;19.60;45.10
59975;DHT22;62136;-35.664;-63.766;2023-04-19T08:50:31;19.50;45.00
59975;DHT22;62136;-35.664;-63.766;2023-04-19T08:52:59;19.50;45.00
59975;DHT22;62136;-35.664;-63.766;2023-04-19T08:55:28;19.60;45.20
59975;DHT22;62136;-35.664;-63.766;2023-04-19T08:57:56;19.50;45.20
59975;DHT22;62136;-35.664;-63.766;2023-04-19T09:00:24;19.50;45.00
59975;DHT22;62136;-35.664;-63.766;2023-04-19T09:02:52;19.50;45.10
59975;DHT22;62136;-35.664;-63.766;2023-04-19T09:05:22;19.50;45.10
59975;DHT22;62136;-35.664;-63.766;2023-04-19T09:07:49;19.50;45.10
59975;DHT22;62136;-35.664;-63.766;2023-04-19T09:10:18;19.50;45.00
59975;DHT22;62136;-35.664;-63.766;2023-04-19T09:13:04;19.50;45.10
59975;DHT22;62136;-35.664;-63.766;2023-04-19T09:15:39;19.50;45.60
59975;DHT22;62136;-35.664;-63.766;2023-04-19T09:18:08;19.50;45.10
59975;DHT22;62136;-35.664;-63.766;2023-04-19T09:20:39;19.50;45.00
59975;DHT22;62136;-35.664;-63.766;2023-04-19T09:23:09;19.50;45.20
59975;DHT22;62136;-35.664;-63.766;2023-04-19T09:25:38;19.50;45.10
59975;DHT22;62136;-35.664;-63.766;2023-04-19T09:28:13;19.50;45.20
59975;DHT22;62136;-35.664;-63.766;2023-04-19T09:30:41;19.50;45.20
59975;DHT22;62136;-35.664;-63.766;2023-04-19T09:33:08;19.50;45.10
59975;DHT22;62136;-35.664;-63.766;2023-04-19T09:35:43;19.50;45.00
59975;DHT22;62136;-35.664;-63.766;2023-04-19T09:38:11;19.50;45.30
59975;DHT22;62136;-35.664;-63.766;2023-04-19T09:40:39;19.50;45.10
59975;DHT22;62136;-35.664;-63.766;2023-04-19T09:43:06;19.40;45.00
59975;DHT22;62136;-35.664;-63.766;2023-04-19T09:45:41;19.40;45.10
59975;DHT22;62136;-35.664;-63.766;2023-04-19T09:48:10;19.40;45.00
59975;DHT22;62136;-35.664;-63.766;2023-04-19T09:53:22;19.40;45.20
59975;DHT22;62136;-35.664;-63.766;2023-04-19T09:55:50;19.40;45.20
59975;DHT22;62136;-35.664;-63.766;2023-04-19T09:58:18;19.40;45.20
59975;DHT22;62136;-35.664;-63.766;2023-04-19T10:00:46;19.40;45.20
59975;DHT22;62136;-35.664;-63.766;2023-04-19T10:03:17;19.40;45.20
59975;DHT22;62136;-35.664;-63.766;2023-04-19T10:05:45;19.40;45.40
59975;DHT22;62136;-35.664;-63.766;2023-04-19T10:08:13;19.40;45.30
59975;DHT22;62136;-35.664;-63.766;2023-04-19T10:10:41;19.40;45.20
59975;DHT22;62136;-35.664;-63.766;2023-04-19T10:13:12;19.40;45.30
59975;DHT22;62136;-35.664;-63.766;2023-04-19T10:15:41;19.40;45.30
59975;DHT22;62136;-35.664;-63.766;2023-04-19T10:18:09;19.40;45.40
59975;DHT22;62136;-35.664;-63.766;2023-04-19T10:21:00;19.40;45.40
59975;DHT22;62136;-35.664;-63.766;2023-04-19T10:23:31;19.30;45.30
59975;DHT22;62136;-35.664;-63.766;2023-04-19T10:25:58;19.30;45.40
59975;DHT22;62136;-35.664;-63.766;2023-04-19T10:28:28;19.30;45.40
59975;DHT22;62136;-35.664;-63.766;2023-04-19T10:31:04;19.30;45.40
59975;DHT22;62136;-35.664;-63.766;2023-04-19T10:33:35;19.30;45.40
59975;DHT22;62136;-35.664;-63.766;2023-04-19T10:36:03;19.30;45.40
59975;DHT22;62136;-35.664;-63.766;2023-04-19T10:38:41;19.30;45.40
59975;DHT22;62136;-35.664;-63.766;2023-04-19T10:41:10;19.30;45.40
59975;DHT22;62136;-35.664;-63.766;2023-04-19T10:43:38;19.30;45.50
59975;DHT22;62136;-35.664;-63.766;2023-04-19T10:46:34;19.30;45.40
59975;DHT22;62136;-35.664;-63.766;2023-04-19T10:49:03;19.30;45.50
59975;DHT22;62136;-35.664;-63.766;2023-04-19T10:51:38;19.30;45.50
59975;DHT22;62136;-35.664;-63.766;2023-04-19T10:54:37;19.30;45.50
59975;DHT22;62136;-35.664;-63.766;2023-04-19T10:57:05;19.20;45.40
59975;DHT22;62136;-35.664;-63.766;2023-04-19T10:59:37;19.30;45.40
59975;DHT22;62136;-35.664;-63.766;2023-04-19T11:07:18;19.20;45.00
59975;DHT22;62136;-35.664;-63.766;2023-04-19T11:09:47;19.20;45.10
59975;DHT22;62136;-35.664;-63.766;2023-04-19T11:12:19;19.20;45.40
59975;DHT22;62136;-35.664;-63.766;2023-04-19T11:14:56;19.20;45.40
59975;DHT22;62136;-35.664;-63.766;2023-04-19T11:17:31;19.30;45.50
59975;DHT22;62136;-35.664;-63.766;2023-04-19T11:20:09;19.30;45.40
59975;DHT22;62136;-35.664;-63.766;2023-04-19T11:22:45;19.30;45.50
59975;DHT22;62136;-35.664;-63.766;2023-04-19T11:25:17;19.30;45.40
59975;DHT22;62136;-35.664;-63.766;2023-04-19T11:27:50;19.30;45.40
59975;DHT22;62136;-35.664;-63.766;2023-04-19T11:30:30;19.30;45.40
59975;DHT22;62136;-35.664;-63.766;2023-04-19T11:32:57;19.30;45.50
59975;DHT22;62136;-35.664;-63.766;2023-04-19T11:35:26;19.30;45.40
59975;DHT22;62136;-35.664;-63.766;2023-04-19T11:37:59;19.30;45.60
59975;DHT22;62136;-35.664;-63.766;2023-04-19T11:40:36;19.30;45.30
59975;DHT22;62136;-35.664;-63.766;2023-04-19T11:43:05;19.30;45.00
59975;DHT22;62136;-35.664;-63.766;2023-04-19T11:45:37;19.40;45.20
59975;DHT22;62136;-35.664;-63.766;2023-04-19T11:48:14;19.40;45.20
59975;DHT22;62136;-35.664;-63.766;2023-04-19T11:50:42;19.40;45.10
59975;DHT22;62136;-35.664;-63.766;2023-04-19T11:53:31;19.40;45.10
59975;DHT22;62136;-35.664;-63.766;2023-04-19T11:56:06;19.40;45.10
59975;DHT22;62136;-35.664;-63.766;2023-04-19T11:58:43;19.40;45.10
59975;DHT22;62136;-35.664;-63.766;2023-04-19T12:01:24;19.40;45.30
59975;DHT22;62136;-35.664;-63.766;2023-04-19T12:03:53;19.40;45.20
59975;DHT22;62136;-35.664;-63.766;2023-04-19T12:06:26;19.50;45.90
59975;DHT22;62136;-35.664;-63.766;2023-04-19T12:08:58;19.50;46.20
59975;DHT22;62136;-35.664;-63.766;2023-04-19T12:11:45;19.50;46.40
59975;DHT22;62136;-35.664;-63.766;2023-04-19T12:14:18;19.50;46.90
59975;DHT22;62136;-35.664;-63.766;2023-04-19T12:17:11;19.60;47.10
59975;DHT22;62136;-35.664;-63.766;2023-04-19T12:19:44;19.60;47.40
59975;DHT22;62136;-35.664;-63.766;2023-04-19T12:22:14;19.60;47.70
59975;DHT22;62136;-35.664;-63.766;2023-04-19T12:24:43;19.70;48.70
59975;DHT22;62136;-35.664;-63.766;2023-04-19T12:27:10;19.70;49.10
59975;DHT22;62136;-35.664;-63.766;2023-04-19T12:29:37;19.70;49.70
59975;DHT22;62136;-35.664;-63.766;2023-04-19T12:32:06;19.80;50.30
59975;DHT22;62136;-35.664;-63.766;2023-04-19T12:34:33;19.80;51.10
59975;DHT22;62136;-35.664;-63.766;2023-04-19T12:37:00;19.90;51.50
59975;DHT22;62136;-35.664;-63.766;2023-04-19T12:39:29;19.90;52.30
59975;DHT22;62136;-35.664;-63.766;2023-04-19T12:41:56;20.00;53.10
59975;DHT22;62136;-35.664;-63.766;2023-04-19T12:44:23;20.00;53.70
59975;DHT22;62136;-35.664;-63.766;2023-04-19T12:46:50;20.10;54.10
59975;DHT22;62136;-35.664;-63.766;2023-04-19T12:49:20;20.10;54.90
59975;DHT22;62136;-35.664;-63.766;2023-04-19T12:51:47;20.10;54.80
59975;DHT22;62136;-35.664;-63.766;2023-04-19T12:54:15;20.10;54.70
59975;DHT22;62136;-35.664;-63.766;2023-04-19T12:56:42;20.20;55.10
59975;DHT22;62136;-35.664;-63.766;2023-04-19T12:59:12;20.20;54.90
59975;DHT22;62136;-35.664;-63.766;2023-04-19T13:01:39;20.30;55.40
59975;DHT22;62136;-35.664;-63.766;2023-04-19T13:04:09;20.30;54.20
59975;DHT22;62136;-35.664;-63.766;2023-04-19T13:06:37;20.40;53.50
59975;DHT22;62136;-35.664;-63.766;2023-04-19T13:09:05;20.40;53.10
59975;DHT22;62136;-35.664;-63.766;2023-04-19T13:11:32;20.40;54.20
59975;DHT22;62136;-35.664;-63.766;2023-04-19T13:14:00;20.50;54.00
59975;DHT22;62136;-35.664;-63.766;2023-04-19T13:16:27;20.50;53.50
59975;DHT22;62136;-35.664;-63.766;2023-04-19T13:18:57;20.60;53.10
59975;DHT22;62136;-35.664;-63.766;2023-04-19T13:21:24;20.60;54.10
59975;DHT22;62136;-35.664;-63.766;2023-04-19T13:23:52;20.60;54.80
59975;DHT22;62136;-35.664;-63.766;2023-04-19T13:26:20;20.70;55.30
59975;DHT22;62136;-35.664;-63.766;2023-04-19T13:28:47;20.70;56.20
59975;DHT22;62136;-35.664;-63.766;2023-04-19T13:31:14;20.70;55.90
59975;DHT22;62136;-35.664;-63.766;2023-04-19T13:33:41;20.80;54.70
59975;DHT22;62136;-35.664;-63.766;2023-04-19T13:36:08;20.80;56.40
59975;DHT22;62136;-35.664;-63.766;2023-04-19T13:38:35;20.90;57.00
59975;DHT22;62136;-35.664;-63.766;2023-04-19T13:41:03;20.90;57.50
59975;DHT22;62136;-35.664;-63.766;2023-04-19T13:43:30;21.00;56.90
59975;DHT22;62136;-35.664;-63.766;2023-04-19T13:45:58;21.00;57.60
59975;DHT22;62136;-35.664;-63.766;2023-04-19T13:48:26;21.10;57.30
59975;DHT22;62136;-35.664;-63.766;2023-04-19T13:50:55;21.10;57.50
59975;DHT22;62136;-35.664;-63.766;2023-04-19T13:53:25;21.20;57.60
59975;DHT22;62136;-35.664;-63.766;2023-04-19T13:56:06;21.30;57.50
59975;DHT22;62136;-35.664;-63.766;2023-04-19T13:58:39;21.30;57.40
59975;DHT22;62136;-35.664;-63.766;2023-04-19T14:01:06;21.40;57.50
59975;DHT22;62136;-35.664;-63.766;2023-04-19T14:03:34;21.40;57.20
59975;DHT22;62136;-35.664;-63.766;2023-04-19T14:06:01;21.40;56.40
59975;DHT22;62136;-35.664;-63.766;2023-04-19T14:08:28;21.40;56.50
59975;DHT22;62136;-35.664;-63.766;2023-04-19T14:10:54;21.40;56.80
59975;DHT22;62136;-35.664;-63.766;2023-04-19T14:13:22;21.40;57.10
59975;DHT22;62136;-35.664;-63.766;2023-04-19T14:15:50;21.40;57.00
59975;DHT22;62136;-35.664;-63.766;2023-04-19T14:18:17;21.40;57.50
59975;DHT22;62136;-35.664;-63.766;2023-04-19T14:20:44;21.50;57.90
59975;DHT22;62136;-35.664;-63.766;2023-04-19T14:23:11;21.50;58.30
59975;DHT22;62136;-35.664;-63.766;2023-04-19T14:25:38;21.50;58.10
59975;DHT22;62136;-35.664;-63.766;2023-04-19T14:28:05;21.60;58.60
59975;DHT22;62136;-35.664;-63.766;2023-04-19T14:30:35;21.60;58.60
59975;DHT22;62136;-35.664;-63.766;2023-04-19T14:33:06;21.60;58.70
59975;DHT22;62136;-35.664;-63.766;2023-04-19T14:35:33;21.70;58.90
59975;DHT22;62136;-35.664;-63.766;2023-04-19T14:38:00;21.70;59.10
59975;DHT22;62136;-35.664;-63.766;2023-04-19T14:40:27;21.80;59.20
59975;DHT22;62136;-35.664;-63.766;2023-04-19T14:42:54;21.80;59.80
59975;DHT22;62136;-35.664;-63.766;2023-04-19T14:45:21;21.90;59.40
59975;DHT22;62136;-35.664;-63.766;2023-04-19T14:47:48;21.90;59.60
59975;DHT22;62136;-35.664;-63.766;2023-04-19T14:50:21;21.90;59.30
59975;DHT22;62136;-35.664;-63.766;2023-04-19T14:53:00;22.00;60.00
59975;DHT22;62136;-35.664;-63.766;2023-04-19T14:55:27;22.10;60.70
59975;DHT22;62136;-35.664;-63.766;2023-04-19T14:57:55;22.10;60.10
59975;DHT22;62136;-35.664;-63.766;2023-04-19T15:00:22;22.10;60.40
59975;DHT22;62136;-35.664;-63.766;2023-04-19T15:02:49;22.20;60.80
59975;DHT22;62136;-35.664;-63.766;2023-04-19T15:05:16;22.30;60.80
59975;DHT22;62136;-35.664;-63.766;2023-04-19T15:07:45;22.40;60.60